H202 — WDJ4943 — position and weather

sailwx.info

Track history (hours):
 
Tides and Currents Weather Stations Pressure Air Temp Water Temp Dewpoint Dewpoint Depression Visibility Wind Speed Wind Dir Waves Ship Positions

H202

Owner: HNY Ferry Fleet LLC, New York, NY. More information available from US FCC via Universal Licensing System and Coast Guard Vessel Documentation Center.

Last reported at 2018-Jan-19 22:50 UTC. Time now 2018-Jan-21 22:48 UTC.
Position N 40°42' W 073°58'.

Length 26 m; draft 1.7 m.

Type: Passenger vessel. MMSI: 367782690.

Date/timePositionNaut miles runAvg speedWind from/ knotsBaromVisibWave heightAir tempDewpointWater temp
2018-Jan-19 22:50N 40°42' W 073°58'0 0.0
2018-Jan-19 22:30N 40°42' W 073°58'0 0.0
2018-Jan-19 22:00N 40°42' W 073°58'0 0.0
2018-Jan-19 21:30N 40°42' W 073°58'0 0.0
2018-Jan-19 21:00N 40°42' W 073°58'0 0.0
2018-Jan-19 20:30N 40°42' W 073°58'0 0.0
2018-Jan-19 20:00N 40°42' W 073°58'0 0.0
2018-Jan-19 19:30N 40°42' W 073°58'0 0.0
2018-Jan-19 19:00N 40°42' W 073°58'0 0.0
2018-Jan-19 18:30N 40°42' W 073°58'2 3.1
2018-Jan-19 18:00N 40°42' W 074°00'2 3.1
2018-Jan-19 17:30N 40°42' W 073°58'0 0.0
2018-Jan-19 17:00N 40°42' W 073°58'0 0.0
2018-Jan-19 16:30N 40°42' W 073°58'0 0.0
2018-Jan-19 16:00N 40°42' W 073°58'0 0.1
2018-Jan-19 15:30N 40°42' W 073°58'1 2.3
2018-Jan-19 15:00N 40°42' W 073°60'1 2.3
2018-Jan-19 14:30N 40°42' W 073°58'0 0.0
2018-Jan-19 14:00N 40°42' W 073°58'0 0.0
2018-Jan-19 13:30N 40°42' W 073°58'0 0.0
2018-Jan-19 13:00N 40°42' W 073°58'0 0.0
2018-Jan-19 12:30N 40°42' W 073°58'1 2.2
2018-Jan-19 12:01N 40°43' W 073°58'2 3.5
2018-Jan-19 11:30N 40°42' W 074°00'1 0.2
2018-Jan-19 03:12N 40°42' W 073°58'210.8
2018-Jan-19 03:01N 40°44' W 073°58'2 3.2
2018-Jan-19 02:30N 40°43' W 073°58'1 2.0
2018-Jan-19 02:01N 40°42' W 073°59'3 4.6
2018-Jan-19 01:28N 40°45' W 073°58'2 4.7
2018-Jan-19 01:01N 40°43' W 073°58'1 1.5
2018-Jan-19 00:30N 40°42' W 073°59'2 4.5
2018-Jan-19 00:00N 40°45' W 073°58'3 5.3
2018-Jan-18 23:30N 40°42' W 073°60'1 2.3
2018-Jan-18 23:00N 40°43' W 073°58'2 4.3
2018-Jan-18 22:30N 40°45' W 073°58'2 5.0
2018-Jan-18 22:01N 40°42' W 073°59'1 1.6
2018-Jan-18 21:31N 40°43' W 073°58'2 4.2
2018-Jan-18 21:00N 40°45' W 073°58'3 5.6
2018-Jan-18 20:30N 40°42' W 073°60'1 2.4
2018-Jan-18 20:01N 40°43' W 073°58'2 4.0
2018-Jan-18 19:30N 40°45' W 073°58'3 5.6
2018-Jan-18 19:01N 40°42' W 073°60'2 3.1
2018-Jan-18 18:30N 40°43' W 073°58'1 2.7
2018-Jan-18 18:01N 40°44' W 073°58'3 5.7
2018-Jan-18 17:30N 40°42' W 074°00'2 4.0
2018-Jan-18 17:00N 40°43' W 073°58'1 1.1
2018-Jan-18 16:29N 40°44' W 073°58'3 5.4
2018-Jan-18 16:00N 40°42' W 074°00'2 4.3
2018-Jan-18 15:30N 40°43' W 073°58'1 1.2
2018-Jan-18 15:00N 40°44' W 073°58'3 5.1
2018-Jan-18 14:30N 40°42' W 074°00'2 4.7
2018-Jan-18 14:00N 40°44' W 073°58'0 0.7
2018-Jan-18 13:31N 40°43' W 073°58'2 4.2
2018-Jan-18 13:00N 40°42' W 074°00'3 5.1
2018-Jan-18 12:30N 40°44' W 073°58'1 1.3
2018-Jan-18 12:00N 40°43' W 073°58'2 4.3
2018-Jan-18 11:31N 40°42' W 074°00'2 0.2
2018-Jan-18 01:43N 40°42' W 073°58'1 6.3
2018-Jan-18 01:30N 40°42' W 074°00'2 4.5
2018-Jan-18 01:00N 40°44' W 073°58'2 2.4
2018-Jan-18 00:01N 40°42' W 074°00'0 7.6
2018-Jan-17 23:57N 40°42' W 073°60'  
2018-Jan-12 15:00N 40°42' W 074°00'0 0.0
2018-Jan-12 14:30N 40°42' W 074°00'4 7.1
2018-Jan-12 14:01N 40°38' W 074°02'4 7.0
2018-Jan-12 13:30N 40°42' W 074°00'0 0.0
2018-Jan-12 13:00N 40°42' W 074°00'4 7.1
2018-Jan-12 12:30N 40°38' W 074°02'5 9.4
2018-Jan-12 12:00N 40°42' W 073°58'0 0.0
2018-Jan-12 03:57N 40°42' W 073°58'1 3.4
2018-Jan-12 03:30N 40°42' W 074°00'3 6.8
2018-Jan-12 03:00N 40°39' W 074°02'2 4.3
2018-Jan-12 02:31N 40°41' W 074°01'1 2.5
2018-Jan-12 02:01N 40°42' W 074°00'1 2.7
2018-Jan-12 01:30N 40°41' W 074°01'2 4.3
2018-Jan-12 01:00N 40°39' W 074°02'4 7.5
2018-Jan-12 00:30N 40°42' W 073°60'0 0.9
2018-Jan-12 00:00N 40°42' W 074°00'3 5.3
2018-Jan-11 23:30N 40°40' W 074°01'1 2.5
2018-Jan-11 23:00N 40°41' W 074°01'2 3.1
2018-Jan-11 22:30N 40°42' W 073°60'4 7.4
2018-Jan-11 22:01N 40°39' W 074°02'2 4.3
2018-Jan-11 21:31N 40°41' W 074°01'2 3.6
2018-Jan-11 21:00N 40°42' W 073°60'1 1.9
2018-Jan-11 20:30N 40°42' W 073°58'0 0.0
2018-Jan-11 20:00N 40°42' W 073°58'1 2.2
2018-Jan-11 19:30N 40°42' W 073°60'4 7.4
2018-Jan-11 19:01N 40°39' W 074°02'2 4.3
2018-Jan-11 18:31N 40°41' W 074°01'1 2.8
2018-Jan-11 18:00N 40°42' W 074°00'1 2.8
2018-Jan-11 17:31N 40°41' W 074°01'2 4.2
2018-Jan-11 17:00N 40°39' W 074°02'4 7.4
2018-Jan-11 16:31N 40°42' W 073°60'1 1.5
2018-Jan-11 16:01N 40°42' W 074°00'4 7.0
2018-Jan-11 15:30N 40°38' W 074°02'4 7.1
2018-Jan-11 15:00N 40°42' W 074°00'0 0.0
2018-Jan-11 14:30N 40°42' W 074°00'4 7.0
2018-Jan-11 14:00N 40°38' W 074°02'4 7.1
2018-Jan-11 13:31N 40°42' W 074°00'0 0.0
2018-Jan-11 13:01N 40°42' W 074°00'4 7.0
2018-Jan-11 12:30N 40°38' W 074°02'5 9.5
2018-Jan-11 12:00N 40°42' W 073°58'0 0.0
2018-Jan-11 01:39N 40°42' W 073°58'1 7.1
2018-Jan-11 01:30N 40°42' W 073°60'2 4.0
2018-Jan-11 01:00N 40°44' W 073°58'0 0.7
2018-Jan-11 00:30N 40°44' W 073°58'2 4.6
2018-Jan-11 00:00N 40°42' W 074°00'3 5.1
2018-Jan-10 23:31N 40°44' W 073°58'1 1.3
2018-Jan-10 23:00N 40°43' W 073°58'2 4.2
2018-Jan-10 22:31N 40°42' W 074°00'3 5.1
2018-Jan-10 22:00N 40°44' W 073°58'1 1.5
2018-Jan-10 21:31N 40°43' W 073°58'2 4.0
2018-Jan-10 21:00N 40°42' W 074°00'3 5.9
2018-Jan-10 20:30N 40°45' W 073°58'1 2.7
2018-Jan-10 20:01N 40°43' W 073°58'2 3.2
2018-Jan-10 19:30N 40°42' W 073°60'3 5.6
2018-Jan-10 19:01N 40°45' W 073°58'2 4.1
2018-Jan-10 18:31N 40°43' W 073°58'1 2.3
2018-Jan-10 18:00N 40°42' W 073°60'3 5.5
2018-Jan-10 17:31N 40°45' W 073°58'2 4.0
2018-Jan-10 17:00N 40°43' W 073°58'1 2.2
2018-Jan-10 16:30N 40°42' W 073°60'3 5.2
2018-Jan-10 16:00N 40°45' W 073°58'2 4.3
2018-Jan-10 15:30N 40°43' W 073°58'1 1.0
2018-Jan-10 15:01N 40°42' W 073°59'2 4.1
2018-Jan-10 14:28N 40°45' W 073°58'2 4.6
2018-Jan-10 14:01N 40°42' W 073°59'0 0.8
2018-Jan-10 13:31N 40°43' W 073°58'2 3.8
2018-Jan-10 12:58N 40°45' W 073°58'2 5.0
2018-Jan-10 12:30N 40°42' W 073°59'1 1.4
2018-Jan-10 12:00N 40°43' W 073°58'2 4.0
2018-Jan-10 11:30N 40°45' W 073°58'2 4.7
2018-Jan-10 10:59N 40°42' W 073°58'0 0.0
2018-Jan-10 10:30N 40°42' W 073°58'0 0.0
2018-Jan-10 01:54N 40°42' W 073°58'1 3.6
2018-Jan-10 01:30N 40°42' W 074°00'3 5.4
2018-Jan-10 01:01N 40°44' W 073°58'1 1.9
2018-Jan-10 00:30N 40°43' W 073°58'2 4.2
2018-Jan-10 00:01N 40°42' W 074°00'3 6.1
2018-Jan-09 23:30N 40°45' W 073°58'2 3.6
2018-Jan-09 23:01N 40°43' W 073°58'  
Track history (hours):
 
Tides and Currents Weather Stations Pressure Air Temp Water Temp Dewpoint Dewpoint Depression Visibility Wind Speed Wind Dir Waves Ship Positions

H202

Owner: HNY Ferry Fleet LLC, New York, NY. More information available from US FCC via Universal Licensing System and Coast Guard Vessel Documentation Center.

Last reported at 2018-Jan-19 22:50 UTC. Time now 2018-Jan-21 22:48 UTC.
Position N 40°42' W 073°58'.

Length 26 m; draft 1.7 m.

Type: Passenger vessel. MMSI: 367782690.

Date/timePositionNaut miles runAvg speedWind from/ knotsBaromVisibWave heightAir tempDewpointWater temp
2018-Jan-19 22:50N 40°42' W 073°58'0 0.0
2018-Jan-19 22:30N 40°42' W 073°58'0 0.0
2018-Jan-19 22:00N 40°42' W 073°58'0 0.0
2018-Jan-19 21:30N 40°42' W 073°58'0 0.0
2018-Jan-19 21:00N 40°42' W 073°58'0 0.0
2018-Jan-19 20:30N 40°42' W 073°58'0 0.0
2018-Jan-19 20:00N 40°42' W 073°58'0 0.0
2018-Jan-19 19:30N 40°42' W 073°58'0 0.0
2018-Jan-19 19:00N 40°42' W 073°58'0 0.0
2018-Jan-19 18:30N 40°42' W 073°58'2 3.1
2018-Jan-19 18:00N 40°42' W 074°00'2 3.1
2018-Jan-19 17:30N 40°42' W 073°58'0 0.0
2018-Jan-19 17:00N 40°42' W 073°58'0 0.0
2018-Jan-19 16:30N 40°42' W 073°58'0 0.0
2018-Jan-19 16:00N 40°42' W 073°58'0 0.1
2018-Jan-19 15:30N 40°42' W 073°58'1 2.3
2018-Jan-19 15:00N 40°42' W 073°60'1 2.3
2018-Jan-19 14:30N 40°42' W 073°58'0 0.0
2018-Jan-19 14:00N 40°42' W 073°58'0 0.0
2018-Jan-19 13:30N 40°42' W 073°58'0 0.0
2018-Jan-19 13:00N 40°42' W 073°58'0 0.0
2018-Jan-19 12:30N 40°42' W 073°58'1 2.2
2018-Jan-19 12:01N 40°43' W 073°58'2 3.5
2018-Jan-19 11:30N 40°42' W 074°00'1 0.2
2018-Jan-19 03:12N 40°42' W 073°58'210.8
2018-Jan-19 03:01N 40°44' W 073°58'2 3.2
2018-Jan-19 02:30N 40°43' W 073°58'1 2.0
2018-Jan-19 02:01N 40°42' W 073°59'3 4.6
2018-Jan-19 01:28N 40°45' W 073°58'2 4.7
2018-Jan-19 01:01N 40°43' W 073°58'1 1.5
2018-Jan-19 00:30N 40°42' W 073°59'2 4.5
2018-Jan-19 00:00N 40°45' W 073°58'3 5.3
2018-Jan-18 23:30N 40°42' W 073°60'1 2.3
2018-Jan-18 23:00N 40°43' W 073°58'2 4.3
2018-Jan-18 22:30N 40°45' W 073°58'2 5.0
2018-Jan-18 22:01N 40°42' W 073°59'1 1.6
2018-Jan-18 21:31N 40°43' W 073°58'2 4.2
2018-Jan-18 21:00N 40°45' W 073°58'3 5.6
2018-Jan-18 20:30N 40°42' W 073°60'1 2.4
2018-Jan-18 20:01N 40°43' W 073°58'2 4.0
2018-Jan-18 19:30N 40°45' W 073°58'3 5.6
2018-Jan-18 19:01N 40°42' W 073°60'2 3.1
2018-Jan-18 18:30N 40°43' W 073°58'1 2.7
2018-Jan-18 18:01N 40°44' W 073°58'3 5.7
2018-Jan-18 17:30N 40°42' W 074°00'2 4.0
2018-Jan-18 17:00N 40°43' W 073°58'1 1.1
2018-Jan-18 16:29N 40°44' W 073°58'3 5.4
2018-Jan-18 16:00N 40°42' W 074°00'2 4.3
2018-Jan-18 15:30N 40°43' W 073°58'1 1.2
2018-Jan-18 15:00N 40°44' W 073°58'3 5.1
2018-Jan-18 14:30N 40°42' W 074°00'2 4.7
2018-Jan-18 14:00N 40°44' W 073°58'0 0.7
2018-Jan-18 13:31N 40°43' W 073°58'2 4.2
2018-Jan-18 13:00N 40°42' W 074°00'3 5.1
2018-Jan-18 12:30N 40°44' W 073°58'1 1.3
2018-Jan-18 12:00N 40°43' W 073°58'2 4.3
2018-Jan-18 11:31N 40°42' W 074°00'2 0.2
2018-Jan-18 01:43N 40°42' W 073°58'1 6.3
2018-Jan-18 01:30N 40°42' W 074°00'2 4.5
2018-Jan-18 01:00N 40°44' W 073°58'2 2.4
2018-Jan-18 00:01N 40°42' W 074°00'0 7.6
2018-Jan-17 23:57N 40°42' W 073°60'  
2018-Jan-12 15:00N 40°42' W 074°00'0 0.0
2018-Jan-12 14:30N 40°42' W 074°00'4 7.1
2018-Jan-12 14:01N 40°38' W 074°02'4 7.0
2018-Jan-12 13:30N 40°42' W 074°00'0 0.0
2018-Jan-12 13:00N 40°42' W 074°00'4 7.1
2018-Jan-12 12:30N 40°38' W 074°02'5 9.4
2018-Jan-12 12:00N 40°42' W 073°58'0 0.0
2018-Jan-12 03:57N 40°42' W 073°58'1 3.4
2018-Jan-12 03:30N 40°42' W 074°00'3 6.8
2018-Jan-12 03:00N 40°39' W 074°02'2 4.3
2018-Jan-12 02:31N 40°41' W 074°01'1 2.5
2018-Jan-12 02:01N 40°42' W 074°00'1 2.7
2018-Jan-12 01:30N 40°41' W 074°01'2 4.3
2018-Jan-12 01:00N 40°39' W 074°02'4 7.5
2018-Jan-12 00:30N 40°42' W 073°60'0 0.9
2018-Jan-12 00:00N 40°42' W 074°00'3 5.3
2018-Jan-11 23:30N 40°40' W 074°01'1 2.5
2018-Jan-11 23:00N 40°41' W 074°01'2 3.1
2018-Jan-11 22:30N 40°42' W 073°60'4 7.4
2018-Jan-11 22:01N 40°39' W 074°02'2 4.3
2018-Jan-11 21:31N 40°41' W 074°01'2 3.6
2018-Jan-11 21:00N 40°42' W 073°60'1 1.9
2018-Jan-11 20:30N 40°42' W 073°58'0 0.0
2018-Jan-11 20:00N 40°42' W 073°58'1 2.2
2018-Jan-11 19:30N 40°42' W 073°60'4 7.4
2018-Jan-11 19:01N 40°39' W 074°02'2 4.3
2018-Jan-11 18:31N 40°41' W 074°01'1 2.8
2018-Jan-11 18:00N 40°42' W 074°00'1 2.8
2018-Jan-11 17:31N 40°41' W 074°01'2 4.2
2018-Jan-11 17:00N 40°39' W 074°02'4 7.4
2018-Jan-11 16:31N 40°42' W 073°60'1 1.5
2018-Jan-11 16:01N 40°42' W 074°00'4 7.0
2018-Jan-11 15:30N 40°38' W 074°02'4 7.1
2018-Jan-11 15:00N 40°42' W 074°00'0 0.0
2018-Jan-11 14:30N 40°42' W 074°00'4 7.0
2018-Jan-11 14:00N 40°38' W 074°02'4 7.1
2018-Jan-11 13:31N 40°42' W 074°00'0 0.0
2018-Jan-11 13:01N 40°42' W 074°00'4 7.0
2018-Jan-11 12:30N 40°38' W 074°02'5 9.5
2018-Jan-11 12:00N 40°42' W 073°58'0 0.0
2018-Jan-11 01:39N 40°42' W 073°58'1 7.1
2018-Jan-11 01:30N 40°42' W 073°60'2 4.0
2018-Jan-11 01:00N 40°44' W 073°58'0 0.7
2018-Jan-11 00:30N 40°44' W 073°58'2 4.6
2018-Jan-11 00:00N 40°42' W 074°00'3 5.1
2018-Jan-10 23:31N 40°44' W 073°58'1 1.3
2018-Jan-10 23:00N 40°43' W 073°58'2 4.2
2018-Jan-10 22:31N 40°42' W 074°00'3 5.1
2018-Jan-10 22:00N 40°44' W 073°58'1 1.5
2018-Jan-10 21:31N 40°43' W 073°58'2 4.0
2018-Jan-10 21:00N 40°42' W 074°00'3 5.9
2018-Jan-10 20:30N 40°45' W 073°58'1 2.7
2018-Jan-10 20:01N 40°43' W 073°58'2 3.2
2018-Jan-10 19:30N 40°42' W 073°60'3 5.6
2018-Jan-10 19:01N 40°45' W 073°58'2 4.1
2018-Jan-10 18:31N 40°43' W 073°58'1 2.3
2018-Jan-10 18:00N 40°42' W 073°60'3 5.5
2018-Jan-10 17:31N 40°45' W 073°58'2 4.0
2018-Jan-10 17:00N 40°43' W 073°58'1 2.2
2018-Jan-10 16:30N 40°42' W 073°60'3 5.2
2018-Jan-10 16:00N 40°45' W 073°58'2 4.3
2018-Jan-10 15:30N 40°43' W 073°58'1 1.0
2018-Jan-10 15:01N 40°42' W 073°59'2 4.1
2018-Jan-10 14:28N 40°45' W 073°58'2 4.6
2018-Jan-10 14:01N 40°42' W 073°59'0 0.8
2018-Jan-10 13:31N 40°43' W 073°58'2 3.8
2018-Jan-10 12:58N 40°45' W 073°58'2 5.0
2018-Jan-10 12:30N 40°42' W 073°59'1 1.4
2018-Jan-10 12:00N 40°43' W 073°58'2 4.0
2018-Jan-10 11:30N 40°45' W 073°58'2 4.7
2018-Jan-10 10:59N 40°42' W 073°58'0 0.0
2018-Jan-10 10:30N 40°42' W 073°58'0 0.0
2018-Jan-10 01:54N 40°42' W 073°58'1 3.6
2018-Jan-10 01:30N 40°42' W 074°00'3 5.4
2018-Jan-10 01:01N 40°44' W 073°58'1 1.9
2018-Jan-10 00:30N 40°43' W 073°58'2 4.2
2018-Jan-10 00:01N 40°42' W 074°00'3 6.1
2018-Jan-09 23:30N 40°45' W 073°58'2 3.6
2018-Jan-09 23:01N 40°43' W 073°58'  

Dump ship's entire track history